sensor_id;sensor_type;location;lat;lon;timestamp;pressure;altitude;pressure_sealevel;temperature;humidity
34961;BME280;30789;52.030;7.110;2023-11-21T00:00:20;100277.91;;;7.66;100.00
34961;BME280;30789;52.030;7.110;2023-11-21T00:02:47;100276.00;;;7.70;100.00
34961;BME280;30789;52.030;7.110;2023-11-21T00:05:16;100282.28;;;7.71;100.00
34961;BME280;30789;52.030;7.110;2023-11-21T00:07:43;100283.06;;;7.71;100.00
34961;BME280;30789;52.030;7.110;2023-11-21T00:10:13;100285.31;;;7.62;100.00
34961;BME280;30789;52.030;7.110;2023-11-21T00:12:41;100284.16;;;7.63;100.00
34961;BME280;30789;52.030;7.110;2023-11-21T00:15:09;100283.06;;;7.71;100.00
34961;BME280;30789;52.030;7.110;2023-11-21T00:17:39;100281.53;;;7.77;100.00
34961;BME280;30789;52.030;7.110;2023-11-21T00:20:07;100279.59;;;7.78;100.00
34961;BME280;30789;52.030;7.110;2023-11-21T00:22:37;100285.88;;;7.78;100.00
34961;BME280;30789;52.030;7.110;2023-11-21T00:25:06;100279.97;;;7.76;100.00
34961;BME280;30789;52.030;7.110;2023-11-21T00:27:36;100288.59;;;7.75;100.00
34961;BME280;30789;52.030;7.110;2023-11-21T00:30:08;100285.41;;;7.69;100.00
34961;BME280;30789;52.030;7.110;2023-11-21T00:32:39;100286.16;;;7.70;100.00
34961;BME280;30789;52.030;7.110;2023-11-21T00:35:06;100285.41;;;7.69;100.00
34961;BME280;30789;52.030;7.110;2023-11-21T00:37:38;100291.00;;;7.80;100.00
34961;BME280;30789;52.030;7.110;2023-11-21T00:40:06;100292.19;;;7.82;100.00
34961;BME280;30789;52.030;7.110;2023-11-21T00:42:34;100283.53;;;7.80;100.00
34961;BME280;30789;52.030;7.110;2023-11-21T00:45:01;100286.63;;;7.75;100.00
34961;BME280;30789;52.030;7.110;2023-11-21T00:47:28;100287.41;;;7.76;100.00
34961;BME280;30789;52.030;7.110;2023-11-21T00:49:58;100290.56;;;7.78;100.00
34961;BME280;30789;52.030;7.110;2023-11-21T00:52:24;100289.44;;;7.82;100.00
34961;BME280;30789;52.030;7.110;2023-11-21T00:54:51;100295.78;;;7.90;100.00
34961;BME280;30789;52.030;7.110;2023-11-21T00:57:21;100286.81;;;7.93;100.00
34961;BME280;30789;52.030;7.110;2023-11-21T00:59:52;100293.47;;;7.92;100.00
34961;BME280;30789;52.030;7.110;2023-11-21T01:02:22;100297.41;;;7.91;100.00
34961;BME280;30789;52.030;7.110;2023-11-21T01:04:48;100291.53;;;7.92;100.00
34961;BME280;30789;52.030;7.110;2023-11-21T01:07:22;100297.78;;;7.93;100.00
34961;BME280;30789;52.030;7.110;2023-11-21T01:09:52;100299.00;;;7.95;100.00
34961;BME280;30789;52.030;7.110;2023-11-21T01:12:22;100307.25;;;7.95;100.00
34961;BME280;30789;52.030;7.110;2023-11-21T01:14:51;100306.88;;;7.97;100.00
34961;BME280;30789;52.030;7.110;2023-11-21T01:17:18;100314.72;;;7.98;100.00
34961;BME280;30789;52.030;7.110;2023-11-21T01:19:45;100320.97;;;7.99;100.00
34961;BME280;30789;52.030;7.110;2023-11-21T01:22:11;100317.09;;;8.03;100.00
34961;BME280;30789;52.030;7.110;2023-11-21T01:24:44;100320.22;;;8.02;100.00
34961;BME280;30789;52.030;7.110;2023-11-21T01:27:11;100324.19;;;8.04;100.00
34961;BME280;30789;52.030;7.110;2023-11-21T01:29:37;100332.44;;;8.04;100.00
34961;BME280;30789;52.030;7.110;2023-11-21T01:32:11;100332.81;;;8.06;100.00
34961;BME280;30789;52.030;7.110;2023-11-21T01:34:40;100338.34;;;8.10;100.00
34961;BME280;30789;52.030;7.110;2023-11-21T01:37:06;100339.53;;;8.09;100.00
34961;BME280;30789;52.030;7.110;2023-11-21T01:39:34;100341.09;;;8.10;100.00
34961;BME280;30789;52.030;7.110;2023-11-21T01:42:04;100345.06;;;8.12;100.00
34961;BME280;30789;52.030;7.110;2023-11-21T01:44:34;100345.78;;;8.09;100.00
34961;BME280;30789;52.030;7.110;2023-11-21T01:47:01;100343.84;;;8.10;100.00
34961;BME280;30789;52.030;7.110;2023-11-21T01:49:33;100340.72;;;8.11;100.00
34961;BME280;30789;52.030;7.110;2023-11-21T01:52:01;100349.75;;;8.12;100.00
34961;BME280;30789;52.030;7.110;2023-11-21T01:54:30;100348.19;;;8.14;100.00
34961;BME280;30789;52.030;7.110;2023-11-21T01:57:05;100350.94;;;8.14;100.00
34961;BME280;30789;52.030;7.110;2023-11-21T01:59:42;100349.38;;;8.13;100.00
34961;BME280;30789;52.030;7.110;2023-11-21T02:02:13;100353.31;;;8.16;100.00
34961;BME280;30789;52.030;7.110;2023-11-21T02:04:45;100351.75;;;8.15;100.00
34961;BME280;30789;52.030;7.110;2023-11-21T02:07:14;100352.53;;;8.15;100.00
34961;BME280;30789;52.030;7.110;2023-11-21T02:09:41;100354.13;;;8.16;100.00
34961;BME280;30789;52.030;7.110;2023-11-21T02:12:09;100362.72;;;8.15;100.00
34961;BME280;30789;52.030;7.110;2023-11-21T02:14:36;100359.28;;;8.21;100.00
34961;BME280;30789;52.030;7.110;2023-11-21T02:17:04;100351.78;;;8.18;100.00
34961;BME280;30789;52.030;7.110;2023-11-21T02:19:34;100355.69;;;8.17;100.00
34961;BME280;30789;52.030;7.110;2023-11-21T02:22:11;100367.47;;;8.18;100.00
34961;BME280;30789;52.030;7.110;2023-11-21T02:24:41;100368.25;;;8.18;100.00
34961;BME280;30789;52.030;7.110;2023-11-21T02:27:11;100370.16;;;8.14;100.00
34961;BME280;30789;52.030;7.110;2023-11-21T02:29:41;100372.94;;;8.18;100.00
34961;BME280;30789;52.030;7.110;2023-11-21T02:32:08;100373.75;;;8.18;100.00
34961;BME280;30789;52.030;7.110;2023-11-21T02:34:36;100376.50;;;8.18;100.00
34961;BME280;30789;52.030;7.110;2023-11-21T02:37:06;100380.81;;;8.19;100.00
34961;BME280;30789;52.030;7.110;2023-11-21T02:39:33;100379.25;;;8.22;100.00
34961;BME280;30789;52.030;7.110;2023-11-21T02:42:16;100385.19;;;8.24;100.00
34961;BME280;30789;52.030;7.110;2023-11-21T02:44:46;100384.03;;;8.25;100.00
34961;BME280;30789;52.030;7.110;2023-11-21T02:47:16;100380.81;;;8.19;100.00
34961;BME280;30789;52.030;7.110;2023-11-21T02:49:43;100385.59;;;8.22;100.00
34961;BME280;30789;52.030;7.110;2023-11-21T02:52:11;100381.59;;;8.20;100.00
34961;BME280;30789;52.030;7.110;2023-11-21T02:54:38;100380.09;;;8.22;100.00
34961;BME280;30789;52.030;7.110;2023-11-21T02:57:07;100376.88;;;8.20;100.00
34961;BME280;30789;52.030;7.110;2023-11-21T02:59:34;100377.28;;;8.19;100.00
34961;BME280;30789;52.030;7.110;2023-11-21T03:02:05;100375.75;;;8.21;100.00
34961;BME280;30789;52.030;7.110;2023-11-21T03:04:33;100383.75;;;8.33;100.00
34961;BME280;30789;52.030;7.110;2023-11-21T03:07:03;100382.09;;;8.25;100.00
34961;BME280;30789;52.030;7.110;2023-11-21T03:09:30;100380.13;;;8.26;100.00
34961;BME280;30789;52.030;7.110;2023-11-21T03:12:04;100390.38;;;8.29;100.00
34961;BME280;30789;52.030;7.110;2023-11-21T03:14:32;100392.69;;;8.27;100.00
34961;BME280;30789;52.030;7.110;2023-11-21T03:17:01;100396.97;;;8.24;100.00
34961;BME280;30789;52.030;7.110;2023-11-21T03:19:33;100400.91;;;8.27;100.00
34961;BME280;30789;52.030;7.110;2023-11-21T03:22:02;100400.50;;;8.25;100.00
34961;BME280;30789;52.030;7.110;2023-11-21T03:24:29;100402.47;;;8.24;100.00
34961;BME280;30789;52.030;7.110;2023-11-21T03:26:56;100406.72;;;8.22;100.00
34961;BME280;30789;52.030;7.110;2023-11-21T03:29:23;100407.09;;;8.20;100.00
34961;BME280;30789;52.030;7.110;2023-11-21T03:32:01;100397.69;;;8.21;100.00
34961;BME280;30789;52.030;7.110;2023-11-21T03:34:32;100406.78;;;8.25;100.00
34961;BME280;30789;52.030;7.110;2023-11-21T03:37:02;100413.06;;;8.26;100.00
34961;BME280;30789;52.030;7.110;2023-11-21T03:39:30;100413.03;;;8.22;100.00
34961;BME280;30789;52.030;7.110;2023-11-21T03:41:56;100415.69;;;8.19;100.00
34961;BME280;30789;52.030;7.110;2023-11-21T03:44:23;100413.38;;;8.21;100.00
34961;BME280;30789;52.030;7.110;2023-11-21T03:46:54;100410.22;;;8.19;100.00
34961;BME280;30789;52.030;7.110;2023-11-21T03:49:21;100417.34;;;8.23;100.00
34961;BME280;30789;52.030;7.110;2023-11-21T03:51:48;100412.78;;;8.34;100.00
34961;BME280;30789;52.030;7.110;2023-11-21T03:54:17;100413.03;;;8.22;100.00
34961;BME280;30789;52.030;7.110;2023-11-21T03:56:50;100426.00;;;8.25;100.00
34961;BME280;30789;52.030;7.110;2023-11-21T03:59:17;100424.72;;;8.19;100.00
34961;BME280;30789;52.030;7.110;2023-11-21T04:01:45;100416.06;;;8.17;100.00
34961;BME280;30789;52.030;7.110;2023-11-21T04:04:15;100420.41;;;8.18;100.00
34961;BME280;30789;52.030;7.110;2023-11-21T04:06:45;100420.94;;;8.27;100.00
34961;BME280;30789;52.030;7.110;2023-11-21T04:09:11;100420.81;;;8.20;100.00
34961;BME280;30789;52.030;7.110;2023-11-21T04:11:45;100428.97;;;8.13;100.00
34961;BME280;30789;52.030;7.110;2023-11-21T04:14:15;100430.88;;;8.09;100.00
34961;BME280;30789;52.030;7.110;2023-11-21T04:16:42;100426.84;;;8.00;100.00
34961;BME280;30789;52.030;7.110;2023-11-21T04:19:09;100429.13;;;7.94;100.00
34961;BME280;30789;52.030;7.110;2023-11-21T04:21:37;100429.53;;;7.96;100.00
34961;BME280;30789;52.030;7.110;2023-11-21T04:24:05;100442.38;;;7.89;100.00
34961;BME280;30789;52.030;7.110;2023-11-21T04:26:33;100440.94;;;7.98;100.00
34961;BME280;30789;52.030;7.110;2023-11-21T04:29:05;100448.50;;;8.08;100.00
34961;BME280;30789;52.030;7.110;2023-11-21T04:31:31;100448.06;;;8.03;100.00
34961;BME280;30789;52.030;7.110;2023-11-21T04:33:58;100450.06;;;8.09;100.00
34961;BME280;30789;52.030;7.110;2023-11-21T04:36:25;100455.16;;;8.07;100.00
34961;BME280;30789;52.030;7.110;2023-11-21T04:38:58;100460.28;;;8.09;100.00
34961;BME280;30789;52.030;7.110;2023-11-21T04:41:27;100462.59;;;8.07;100.00
34961;BME280;30789;52.030;7.110;2023-11-21T04:43:56;100458.75;;;8.11;100.00
34961;BME280;30789;52.030;7.110;2023-11-21T04:46:31;100457.13;;;8.07;100.00
34961;BME280;30789;52.030;7.110;2023-11-21T04:49:02;100458.66;;;8.04;100.00
34961;BME280;30789;52.030;7.110;2023-11-21T04:51:29;100464.91;;;8.05;100.00
34961;BME280;30789;52.030;7.110;2023-11-21T04:54:02;100471.63;;;8.07;100.00
34961;BME280;30789;52.030;7.110;2023-11-21T04:56:31;100469.72;;;8.11;100.00
34961;BME280;30789;52.030;7.110;2023-11-21T04:59:03;100472.78;;;8.06;100.00
34961;BME280;30789;52.030;7.110;2023-11-21T05:01:30;100476.31;;;8.07;100.00
34961;BME280;30789;52.030;7.110;2023-11-21T05:03:59;100477.19;;;8.11;100.00
34961;BME280;30789;52.030;7.110;2023-11-21T05:06:25;100484.50;;;8.03;100.00
34961;BME280;30789;52.030;7.110;2023-11-21T05:08:52;100488.00;;;8.00;100.00
34961;BME280;30789;52.030;7.110;2023-11-21T05:11:27;100487.16;;;7.96;100.00
34961;BME280;30789;52.030;7.110;2023-11-21T05:13:54;100489.84;;;7.93;100.00
34961;BME280;30789;52.030;7.110;2023-11-21T05:16:25;100495.03;;;7.98;100.00
34961;BME280;30789;52.030;7.110;2023-11-21T05:18:55;100507.53;;;7.95;100.00
34961;BME280;30789;52.030;7.110;2023-11-21T05:21:25;100512.88;;;7.85;100.00
34961;BME280;30789;52.030;7.110;2023-11-21T05:23:53;100509.91;;;7.97;100.00
34961;BME280;30789;52.030;7.110;2023-11-21T05:26:19;100519.28;;;7.96;100.00
34961;BME280;30789;52.030;7.110;2023-11-21T05:28:48;100519.63;;;7.91;100.00
34961;BME280;30789;52.030;7.110;2023-11-21T05:31:17;100527.88;;;7.91;100.00
34961;BME280;30789;52.030;7.110;2023-11-21T05:33:43;100528.53;;;7.84;100.00
34961;BME280;30789;52.030;7.110;2023-11-21T05:36:11;100526.94;;;7.83;100.00
34961;BME280;30789;52.030;7.110;2023-11-21T05:38:40;100534.09;;;7.88;100.00
34961;BME280;30789;52.030;7.110;2023-11-21T05:41:06;100534.13;;;7.91;100.00
34961;BME280;30789;52.030;7.110;2023-11-21T05:43:36;100539.22;;;7.89;100.00
34961;BME280;30789;52.030;7.110;2023-11-21T05:46:04;100534.47;;;7.86;100.00
34961;BME280;30789;52.030;7.110;2023-11-21T05:48:33;100536.78;;;7.84;100.00
34961;BME280;30789;52.030;7.110;2023-11-21T05:51:02;100536.84;;;7.88;100.00
34961;BME280;30789;52.030;7.110;2023-11-21T05:53:29;100538.78;;;7.87;100.00
34961;BME280;30789;52.030;7.110;2023-11-21T05:55:56;100542.34;;;7.91;100.00
34961;BME280;30789;52.030;7.110;2023-11-21T05:58:23;100552.13;;;7.89;100.00
34961;BME280;30789;52.030;7.110;2023-11-21T06:00:54;100556.78;;;7.85;100.00
34961;BME280;30789;52.030;7.110;2023-11-21T06:03:22;100561.84;;;7.83;100.00
34961;BME280;30789;52.030;7.110;2023-11-21T06:05:52;100568.97;;;7.87;100.00
34961;BME280;30789;52.030;7.110;2023-11-21T06:08:22;100572.00;;;7.82;100.00
34961;BME280;30789;52.030;7.110;2023-11-21T06:10:50;100577.25;;;7.91;100.00
34961;BME280;30789;52.030;7.110;2023-11-21T06:13:20;100581.50;;;7.88;100.00
34961;BME280;30789;52.030;7.110;2023-11-21T06:15:52;100582.31;;;7.89;100.00
34961;BME280;30789;52.030;7.110;2023-11-21T06:18:24;100581.81;;;7.83;100.00
34961;BME280;30789;52.030;7.110;2023-11-21T06:20:51;100583.72;;;7.79;100.00
34961;BME280;30789;52.030;7.110;2023-11-21T06:23:18;100580.00;;;7.68;100.00
34961;BME280;30789;52.030;7.110;2023-11-21T06:25:45;100589.47;;;7.71;100.00
34961;BME280;30789;52.030;7.110;2023-11-21T06:28:11;100600.47;;;7.74;100.00
34961;BME280;30789;52.030;7.110;2023-11-21T06:30:43;100599.28;;;7.72;100.00
34961;BME280;30789;52.030;7.110;2023-11-21T06:33:15;100601.94;;;7.68;100.00
34961;BME280;30789;52.030;7.110;2023-11-21T06:35:45;100602.69;;;7.65;100.00
34961;BME280;30789;52.030;7.110;2023-11-21T06:38:12;100602.31;;;7.67;100.00
34961;BME280;30789;52.030;7.110;2023-11-21T06:40:41;100600.28;;;7.60;100.00
34961;BME280;30789;52.030;7.110;2023-11-21T06:43:10;100602.44;;;7.51;100.00
34961;BME280;30789;52.030;7.110;2023-11-21T06:45:39;100601.53;;;7.44;100.00
34961;BME280;30789;52.030;7.110;2023-11-21T06:48:06;100602.03;;;7.49;100.00
34961;BME280;30789;52.030;7.110;2023-11-21T06:50:37;100602.16;;;7.56;100.00
34961;BME280;30789;52.030;7.110;2023-11-21T06:53:05;100606.97;;;7.63;100.00
34961;BME280;30789;52.030;7.110;2023-11-21T06:55:33;100615.50;;;7.58;100.00
34961;BME280;30789;52.030;7.110;2023-11-21T06:58:00;100615.84;;;7.56;100.00
34961;BME280;30789;52.030;7.110;2023-11-21T07:00:27;100625.69;;;7.57;100.00
34961;BME280;30789;52.030;7.110;2023-11-21T07:02:55;100622.88;;;7.54;100.00
34961;BME280;30789;52.030;7.110;2023-11-21T07:05:25;100637.00;;;7.56;100.00
34961;BME280;30789;52.030;7.110;2023-11-21T07:07:54;100638.44;;;7.50;100.00
34961;BME280;30789;52.030;7.110;2023-11-21T07:10:23;100641.63;;;7.52;100.00
34961;BME280;30789;52.030;7.110;2023-11-21T07:12:50;100646.09;;;7.60;100.00
34961;BME280;30789;52.030;7.110;2023-11-21T07:15:17;100649.19;;;7.58;100.00
34961;BME280;30789;52.030;7.110;2023-11-21T07:17:47;100654.63;;;7.55;100.00
34961;BME280;30789;52.030;7.110;2023-11-21T07:20:14;100653.09;;;7.57;100.00
34961;BME280;30789;52.030;7.110;2023-11-21T07:22:42;100656.91;;;7.53;100.00
34961;BME280;30789;52.030;7.110;2023-11-21T07:25:09;100657.72;;;7.53;100.00
34961;BME280;30789;52.030;7.110;2023-11-21T07:27:39;100676.25;;;7.60;100.00
34961;BME280;30789;52.030;7.110;2023-11-21T07:30:06;100678.94;;;7.56;100.00
34961;BME280;30789;52.030;7.110;2023-11-21T07:32:35;100673.94;;;7.62;100.00
34961;BME280;30789;52.030;7.110;2023-11-21T07:35:02;100680.94;;;7.59;100.00
34961;BME280;30789;52.030;7.110;2023-11-21T07:37:30;100678.56;;;7.58;100.00
34961;BME280;30789;52.030;7.110;2023-11-21T07:39:58;100687.53;;;7.55;100.00
34961;BME280;30789;52.030;7.110;2023-11-21T07:42:28;100693.50;;;7.60;100.00
34961;BME280;30789;52.030;7.110;2023-11-21T07:44:56;100698.75;;;7.69;100.00
34961;BME280;30789;52.030;7.110;2023-11-21T07:47:27;100705.69;;;7.63;100.00
34961;BME280;30789;52.030;7.110;2023-11-21T07:49:54;100710.16;;;7.71;100.00
34961;BME280;30789;52.030;7.110;2023-11-21T07:52:23;100721.41;;;7.66;100.00
34961;BME280;30789;52.030;7.110;2023-11-21T07:54:56;100725.38;;;7.68;100.00
34961;BME280;30789;52.030;7.110;2023-11-21T07:57:30;100725.00;;;7.70;100.00
34961;BME280;30789;52.030;7.110;2023-11-21T08:19:38;100767.50;;;7.98;100.00
34961;BME280;30789;52.030;7.110;2023-11-21T08:22:08;100762.75;;;7.95;100.00
34961;BME280;30789;52.030;7.110;2023-11-21T08:24:44;100764.59;;;7.91;100.00
34961;BME280;30789;52.030;7.110;2023-11-21T08:27:14;100771.75;;;7.96;100.00
34961;BME280;30789;52.030;7.110;2023-11-21T08:29:42;100770.16;;;7.95;100.00
34961;BME280;30789;52.030;7.110;2023-11-21T08:32:10;100771.00;;;7.99;100.00
34961;BME280;30789;52.030;7.110;2023-11-21T08:34:45;100772.72;;;8.07;100.00
34961;BME280;30789;52.030;7.110;2023-11-21T08:37:16;100781.22;;;8.21;100.00
34961;BME280;30789;52.030;7.110;2023-11-21T08:39:43;100771.63;;;8.30;100.00
34961;BME280;30789;52.030;7.110;2023-11-21T08:42:10;100780.22;;;8.29;100.00
34961;BME280;30789;52.030;7.110;2023-11-21T08:44:36;100778.69;;;8.31;100.00
34961;BME280;30789;52.030;7.110;2023-11-21T08:47:05;100787.06;;;8.38;100.00
34961;BME280;30789;52.030;7.110;2023-11-21T08:49:32;100784.31;;;8.38;100.00
34961;BME280;30789;52.030;7.110;2023-11-21T08:52:02;100795.69;;;8.40;100.00
34961;BME280;30789;52.030;7.110;2023-11-21T08:54:30;100794.56;;;8.41;100.00
34961;BME280;30789;52.030;7.110;2023-11-21T08:56:59;100796.19;;;8.46;100.00
34961;BME280;30789;52.030;7.110;2023-11-21T08:59:26;100790.28;;;8.44;100.00
34961;BME280;30789;52.030;7.110;2023-11-21T09:01:52;100800.91;;;8.45;100.00
34961;BME280;30789;52.030;7.110;2023-11-21T09:04:19;100806.44;;;8.49;100.00
34961;BME280;30789;52.030;7.110;2023-11-21T09:06:46;100813.88;;;8.48;100.00
34961;BME280;30789;52.030;7.110;2023-11-21T09:09:14;100814.72;;;8.52;100.00
34961;BME280;30789;52.030;7.110;2023-11-21T09:11:41;100816.06;;;8.62;100.00
34961;BME280;30789;52.030;7.110;2023-11-21T09:14:12;100814.22;;;8.69;100.00
34961;BME280;30789;52.030;7.110;2023-11-21T09:16:41;100821.31;;;8.71;100.00
34961;BME280;30789;52.030;7.110;2023-11-21T09:19:08;100826.09;;;8.74;100.00
34961;BME280;30789;52.030;7.110;2023-11-21T09:21:38;100826.47;;;8.72;100.00
34961;BME280;30789;52.030;7.110;2023-11-21T09:24:09;100824.59;;;8.80;100.00
34961;BME280;30789;52.030;7.110;2023-11-21T09:26:38;100838.28;;;8.76;100.00
34961;BME280;30789;52.030;7.110;2023-11-21T09:29:11;100837.00;;;8.70;100.00
34961;BME280;30789;52.030;7.110;2023-11-21T09:31:37;100840.50;;;8.67;100.00
34961;BME280;30789;52.030;7.110;2023-11-21T09:34:05;100839.31;;;8.68;100.00
34961;BME280;30789;52.030;7.110;2023-11-21T09:36:32;100848.06;;;8.74;100.00
34961;BME280;30789;52.030;7.110;2023-11-21T09:38:58;100854.03;;;8.79;100.00
34961;BME280;30789;52.030;7.110;2023-11-21T09:41:37;100852.09;;;8.80;100.00
34961;BME280;30789;52.030;7.110;2023-11-21T09:44:09;100860.81;;;8.85;100.00
34961;BME280;30789;52.030;7.110;2023-11-21T09:46:40;100861.25;;;8.87;100.00
34961;BME280;30789;52.030;7.110;2023-11-21T09:49:09;100863.78;;;8.99;100.00
34961;BME280;30789;52.030;7.110;2023-11-21T09:51:38;100861.88;;;9.03;100.00
34961;BME280;30789;52.030;7.110;2023-11-21T09:54:08;100866.75;;;9.13;100.00
34961;BME280;30789;52.030;7.110;2023-11-21T09:56:39;100872.63;;;9.12;100.00
34961;BME280;30789;52.030;7.110;2023-11-21T09:59:09;100873.00;;;8.88;100.00
34961;BME280;30789;52.030;7.110;2023-11-21T10:01:38;100886.00;;;9.13;100.00
34961;BME280;30789;52.030;7.110;2023-11-21T10:04:07;100881.09;;;9.03;100.00
34961;BME280;30789;52.030;7.110;2023-11-21T10:06:38;100883.72;;;9.19;100.00
34961;BME280;30789;52.030;7.110;2023-11-21T10:09:09;100888.97;;;9.27;100.00
34961;BME280;30789;52.030;7.110;2023-11-21T10:11:39;100888.84;;;9.20;100.00
34961;BME280;30789;52.030;7.110;2023-11-21T10:14:10;100883.66;;;9.15;100.00
34961;BME280;30789;52.030;7.110;2023-11-21T10:16:40;100890.91;;;9.01;100.00
34961;BME280;30789;52.030;7.110;2023-11-21T10:19:09;100890.22;;;8.85;100.00
34961;BME280;30789;52.030;7.110;2023-11-21T10:21:39;100899.94;;;8.79;100.00
34961;BME280;30789;52.030;7.110;2023-11-21T10:24:11;100900.56;;;8.91;100.00
34961;BME280;30789;52.030;7.110;2023-11-21T10:26:38;100908.66;;;9.07;100.00
34961;BME280;30789;52.030;7.110;2023-11-21T10:29:05;100913.19;;;8.96;100.00
34961;BME280;30789;52.030;7.110;2023-11-21T10:31:33;100915.06;;;9.14;100.00
34961;BME280;30789;52.030;7.110;2023-11-21T10:34:16;100913.13;;;9.15;100.00
34961;BME280;30789;52.030;7.110;2023-11-21T10:36:46;100914.63;;;9.12;100.00
34961;BME280;30789;52.030;7.110;2023-11-21T10:39:14;100918.31;;;9.20;100.00
34961;BME280;30789;52.030;7.110;2023-11-21T10:41:45;100917.72;;;9.07;100.00
34961;BME280;30789;52.030;7.110;2023-11-21T10:44:15;100916.38;;;8.98;100.00
34961;BME280;30789;52.030;7.110;2023-11-21T10:46:48;100920.50;;;9.11;100.00
34961;BME280;30789;52.030;7.110;2023-11-21T10:49:21;100925.44;;;9.24;100.00
34961;BME280;30789;52.030;7.110;2023-11-21T10:51:53;100918.78;;;9.25;100.00
34961;BME280;30789;52.030;7.110;2023-11-21T10:54:21;100931.34;;;9.26;100.00
34961;BME280;30789;52.030;7.110;2023-11-21T10:56:53;100924.66;;;9.24;100.00
34961;BME280;30789;52.030;7.110;2023-11-21T10:59:25;100919.38;;;9.15;100.00
34961;BME280;30789;52.030;7.110;2023-11-21T11:01:57;100923.59;;;9.06;100.00
34961;BME280;30789;52.030;7.110;2023-11-21T11:04:28;100920.88;;;9.09;100.00
34961;BME280;30789;52.030;7.110;2023-11-21T11:06:57;100922.94;;;9.16;100.00
34961;BME280;30789;52.030;7.110;2023-11-21T11:09:33;100929.81;;;9.03;100.00
34961;BME280;30789;52.030;7.110;2023-11-21T11:12:00;100928.56;;;9.00;100.00
34961;BME280;30789;52.030;7.110;2023-11-21T11:14:38;100936.22;;;9.10;100.00
34961;BME280;30789;52.030;7.110;2023-11-21T11:17:10;100940.53;;;9.11;100.00
34961;BME280;30789;52.030;7.110;2023-11-21T11:19:40;100940.84;;;9.06;100.00
34961;BME280;30789;52.030;7.110;2023-11-21T11:22:15;100935.69;;;9.01;100.00
34961;BME280;30789;52.030;7.110;2023-11-21T11:25:01;100936.53;;;9.05;100.00
34961;BME280;30789;52.030;7.110;2023-11-21T11:27:50;100952.72;;;9.10;100.00
34961;BME280;30789;52.030;7.110;2023-11-21T11:30:31;100950.19;;;9.02;100.00
34961;BME280;30789;52.030;7.110;2023-11-21T11:33:12;100947.09;;;9.03;100.00
34961;BME280;30789;52.030;7.110;2023-11-21T11:35:46;100954.34;;;9.15;100.00
34961;BME280;30789;52.030;7.110;2023-11-21T11:38:18;100952.44;;;9.19;100.00
34961;BME280;30789;52.030;7.110;2023-11-21T11:40:47;100953.31;;;9.00;100.00
34961;BME280;30789;52.030;7.110;2023-11-21T11:43:24;100943.59;;;9.06;100.00
34961;BME280;30789;52.030;7.110;2023-11-21T11:46:08;100950.16;;;8.98;100.00
34961;BME280;30789;52.030;7.110;2023-11-21T11:48:44;100957.47;;;8.91;100.00
34961;BME280;30789;52.030;7.110;2023-11-21T11:51:13;100965.00;;;8.94;100.00
34961;BME280;30789;52.030;7.110;2023-11-21T11:53:43;100968.34;;;8.84;100.00
34961;BME280;30789;52.030;7.110;2023-11-21T11:56:25;100983.00;;;8.91;100.00
34961;BME280;30789;52.030;7.110;2023-11-21T11:59:00;100987.22;;;9.08;100.00
34961;BME280;30789;52.030;7.110;2023-11-21T12:01:33;100989.84;;;9.01;100.00
34961;BME280;30789;52.030;7.110;2023-11-21T12:04:27;100992.28;;;8.83;100.00
34961;BME280;30789;52.030;7.110;2023-11-21T12:07:05;100998.94;;;8.82;100.00
34961;BME280;30789;52.030;7.110;2023-11-21T12:09:37;101000.16;;;8.85;100.00
34961;BME280;30789;52.030;7.110;2023-11-21T12:12:08;101001.31;;;8.84;100.00
34961;BME280;30789;52.030;7.110;2023-11-21T12:14:36;101007.06;;;8.75;100.00
34961;BME280;30789;52.030;7.110;2023-11-21T12:17:07;101008.41;;;8.85;100.00
34961;BME280;30789;52.030;7.110;2023-11-21T12:19:35;101002.59;;;8.90;100.00
34961;BME280;30789;52.030;7.110;2023-11-21T12:22:03;101007.84;;;8.76;100.00
34961;BME280;30789;52.030;7.110;2023-11-21T12:24:33;101014.41;;;8.90;100.00
34961;BME280;30789;52.030;7.110;2023-11-21T12:27:00;101021.03;;;8.89;100.00
34961;BME280;30789;52.030;7.110;2023-11-21T12:29:26;101017.59;;;8.92;100.00
34961;BME280;30789;52.030;7.110;2023-11-21T12:32:01;101029.00;;;8.94;100.00
34961;BME280;30789;52.030;7.110;2023-11-21T12:34:30;101028.50;;;8.89;100.00
34961;BME280;30789;52.030;7.110;2023-11-21T12:37:00;101037.16;;;8.91;100.00
34961;BME280;30789;52.030;7.110;2023-11-21T12:39:27;101044.28;;;8.92;100.00
34961;BME280;30789;52.030;7.110;2023-11-21T12:41:56;101049.13;;;8.98;100.00
34961;BME280;30789;52.030;7.110;2023-11-21T12:44:23;101043.41;;;8.88;100.00
34961;BME280;30789;52.030;7.110;2023-11-21T12:46:50;101043.75;;;8.86;100.00
34961;BME280;30789;52.030;7.110;2023-11-21T12:49:21;101053.69;;;8.72;100.00
34961;BME280;30789;52.030;7.110;2023-11-21T12:51:53;101052.13;;;8.71;100.00
34961;BME280;30789;52.030;7.110;2023-11-21T12:54:23;101061.00;;;8.64;100.00
34961;BME280;30789;52.030;7.110;2023-11-21T12:56:50;101057.81;;;8.62;100.00
34961;BME280;30789;52.030;7.110;2023-11-21T12:59:20;101064.25;;;8.69;100.00
34961;BME280;30789;52.030;7.110;2023-11-21T13:01:49;101058.84;;;8.73;100.00
34961;BME280;30789;52.030;7.110;2023-11-21T13:04:18;101069.09;;;8.76;100.00
34961;BME280;30789;52.030;7.110;2023-11-21T13:07:03;101067.81;;;8.70;100.00
34961;BME280;30789;52.030;7.110;2023-11-21T13:09:42;101069.66;;;8.85;100.00
34961;BME280;30789;52.030;7.110;2023-11-21T13:12:08;101062.03;;;8.75;100.00
34961;BME280;30789;52.030;7.110;2023-11-21T13:14:41;101074.47;;;8.69;100.00
34961;BME280;30789;52.030;7.110;2023-11-21T13:17:11;101079.72;;;8.78;100.00
34961;BME280;30789;52.030;7.110;2023-11-21T13:19:38;101085.44;;;8.88;100.00
34961;BME280;30789;52.030;7.110;2023-11-21T13:22:04;101085.22;;;8.78;100.00